sensor_id;sensor_type;location;lat;lon;timestamp;P1;durP1;ratioP1;P2;durP2;ratioP2
39218;SDS011;24934;52.752;6.964;2023-03-29T00:01:32;10.63;;;8.17;;
39218;SDS011;24934;52.752;6.964;2023-03-29T00:03:57;9.93;;;8.07;;
39218;SDS011;24934;52.752;6.964;2023-03-29T00:06:24;8.63;;;7.83;;
39218;SDS011;24934;52.752;6.964;2023-03-29T00:08:57;8.70;;;7.87;;
39218;SDS011;24934;52.752;6.964;2023-03-29T00:11:23;8.53;;;7.70;;
39218;SDS011;24934;52.752;6.964;2023-03-29T00:13:50;9.30;;;8.03;;
39218;SDS011;24934;52.752;6.964;2023-03-29T00:16:15;8.33;;;7.67;;
39218;SDS011;24934;52.752;6.964;2023-03-29T00:18:42;9.87;;;7.77;;
39218;SDS011;24934;52.752;6.964;2023-03-29T00:21:08;10.90;;;7.80;;
39218;SDS011;24934;52.752;6.964;2023-03-29T00:23:34;9.53;;;8.50;;
39218;SDS011;24934;52.752;6.964;2023-03-29T00:26:00;8.83;;;7.97;;
39218;SDS011;24934;52.752;6.964;2023-03-29T00:28:26;9.20;;;8.30;;
39218;SDS011;24934;52.752;6.964;2023-03-29T00:30:51;11.83;;;8.10;;
39218;SDS011;24934;52.752;6.964;2023-03-29T00:33:18;10.17;;;8.43;;
39218;SDS011;24934;52.752;6.964;2023-03-29T00:35:45;12.27;;;9.13;;
39218;SDS011;24934;52.752;6.964;2023-03-29T00:38:12;10.83;;;9.37;;
39218;SDS011;24934;52.752;6.964;2023-03-29T00:40:43;13.03;;;9.90;;
39218;SDS011;24934;52.752;6.964;2023-03-29T00:43:13;12.20;;;9.77;;
39218;SDS011;24934;52.752;6.964;2023-03-29T00:45:40;10.83;;;9.77;;
39218;SDS011;24934;52.752;6.964;2023-03-29T00:48:06;11.60;;;10.07;;
39218;SDS011;24934;52.752;6.964;2023-03-29T00:50:36;10.77;;;9.67;;
39218;SDS011;24934;52.752;6.964;2023-03-29T00:55:58;10.80;;;9.70;;
39218;SDS011;24934;52.752;6.964;2023-03-29T00:58:37;11.43;;;9.17;;
39218;SDS011;24934;52.752;6.964;2023-03-29T01:01:13;11.40;;;9.43;;
39218;SDS011;24934;52.752;6.964;2023-03-29T01:03:53;11.77;;;9.33;;
39218;SDS011;24934;52.752;6.964;2023-03-29T01:06:25;10.87;;;9.20;;
39218;SDS011;24934;52.752;6.964;2023-03-29T01:08:54;11.53;;;9.73;;
39218;SDS011;24934;52.752;6.964;2023-03-29T01:11:29;12.53;;;9.30;;
39218;SDS011;24934;52.752;6.964;2023-03-29T01:14:14;9.63;;;8.73;;
39218;SDS011;24934;52.752;6.964;2023-03-29T01:16:47;13.60;;;9.10;;
39218;SDS011;24934;52.752;6.964;2023-03-29T01:19:14;13.60;;;9.97;;
39218;SDS011;24934;52.752;6.964;2023-03-29T01:21:49;12.07;;;9.30;;
39218;SDS011;24934;52.752;6.964;2023-03-29T01:24:56;13.27;;;9.57;;
39218;SDS011;24934;52.752;6.964;2023-03-29T01:27:46;15.70;;;10.30;;
39218;SDS011;24934;52.752;6.964;2023-03-29T01:30:21;11.50;;;10.30;;
39218;SDS011;24934;52.752;6.964;2023-03-29T01:32:58;14.50;;;11.10;;
39218;SDS011;24934;52.752;6.964;2023-03-29T01:35:50;15.27;;;11.73;;
39218;SDS011;24934;52.752;6.964;2023-03-29T01:38:44;13.13;;;11.13;;
39218;SDS011;24934;52.752;6.964;2023-03-29T01:41:16;16.83;;;12.13;;
39218;SDS011;24934;52.752;6.964;2023-03-29T01:49:30;16.13;;;12.93;;
39218;SDS011;24934;52.752;6.964;2023-03-29T01:52:04;18.20;;;14.37;;
39218;SDS011;24934;52.752;6.964;2023-03-29T01:54:59;17.53;;;13.93;;
39218;SDS011;24934;52.752;6.964;2023-03-29T01:57:44;17.70;;;14.47;;
39218;SDS011;24934;52.752;6.964;2023-03-29T02:00:13;22.60;;;15.17;;
39218;SDS011;24934;52.752;6.964;2023-03-29T02:02:40;20.53;;;15.87;;
39218;SDS011;24934;52.752;6.964;2023-03-29T02:05:09;22.83;;;16.70;;
39218;SDS011;24934;52.752;6.964;2023-03-29T02:07:36;22.97;;;16.10;;
39218;SDS011;24934;52.752;6.964;2023-03-29T02:10:04;22.90;;;16.00;;
39218;SDS011;24934;52.752;6.964;2023-03-29T02:12:32;23.73;;;15.73;;
39218;SDS011;24934;52.752;6.964;2023-03-29T02:14:58;22.40;;;15.97;;
39218;SDS011;24934;52.752;6.964;2023-03-29T02:17:25;18.87;;;15.70;;
39218;SDS011;24934;52.752;6.964;2023-03-29T02:19:59;19.60;;;16.30;;
39218;SDS011;24934;52.752;6.964;2023-03-29T02:22:39;22.43;;;15.90;;
39218;SDS011;24934;52.752;6.964;2023-03-29T02:25:13;22.27;;;16.20;;
39218;SDS011;24934;52.752;6.964;2023-03-29T02:27:42;25.20;;;17.50;;
39218;SDS011;24934;52.752;6.964;2023-03-29T02:30:09;24.20;;;16.30;;
39218;SDS011;24934;52.752;6.964;2023-03-29T02:32:54;21.53;;;17.20;;
39218;SDS011;24934;52.752;6.964;2023-03-29T02:35:32;23.23;;;17.37;;
39218;SDS011;24934;52.752;6.964;2023-03-29T02:38:06;22.47;;;16.93;;
39218;SDS011;24934;52.752;6.964;2023-03-29T02:40:35;26.77;;;17.93;;
39218;SDS011;24934;52.752;6.964;2023-03-29T02:43:03;24.93;;;16.43;;
39218;SDS011;24934;52.752;6.964;2023-03-29T02:45:31;22.03;;;16.47;;
39218;SDS011;24934;52.752;6.964;2023-03-29T02:48:01;21.87;;;16.67;;
39218;SDS011;24934;52.752;6.964;2023-03-29T02:50:36;22.80;;;16.13;;
39218;SDS011;24934;52.752;6.964;2023-03-29T02:53:49;24.30;;;16.33;;
39218;SDS011;24934;52.752;6.964;2023-03-29T02:55:56;22.07;;;16.70;;
39218;SDS011;24934;52.752;6.964;2023-03-29T02:58:22;22.90;;;17.17;;
39218;SDS011;24934;52.752;6.964;2023-03-29T03:00:50;24.37;;;18.33;;
39218;SDS011;24934;52.752;6.964;2023-03-29T03:03:17;23.73;;;17.87;;
39218;SDS011;24934;52.752;6.964;2023-03-29T03:05:42;23.87;;;18.23;;
39218;SDS011;24934;52.752;6.964;2023-03-29T03:08:08;24.53;;;19.13;;
39218;SDS011;24934;52.752;6.964;2023-03-29T03:10:34;24.37;;;19.10;;
39218;SDS011;24934;52.752;6.964;2023-03-29T03:13:00;25.40;;;19.00;;
39218;SDS011;24934;52.752;6.964;2023-03-29T03:15:26;21.83;;;17.83;;
39218;SDS011;24934;52.752;6.964;2023-03-29T03:17:52;25.47;;;19.00;;
39218;SDS011;24934;52.752;6.964;2023-03-29T03:20:18;23.93;;;19.90;;
39218;SDS011;24934;52.752;6.964;2023-03-29T03:22:46;25.87;;;19.73;;
39218;SDS011;24934;52.752;6.964;2023-03-29T03:25:13;23.87;;;19.47;;
39218;SDS011;24934;52.752;6.964;2023-03-29T03:27:40;24.40;;;19.17;;
39218;SDS011;24934;52.752;6.964;2023-03-29T03:30:07;26.37;;;20.47;;
39218;SDS011;24934;52.752;6.964;2023-03-29T03:32:33;22.33;;;18.83;;
39218;SDS011;24934;52.752;6.964;2023-03-29T03:35:00;24.00;;;19.03;;
39218;SDS011;24934;52.752;6.964;2023-03-29T03:37:26;24.90;;;19.90;;
39218;SDS011;24934;52.752;6.964;2023-03-29T03:39:52;25.17;;;20.17;;
39218;SDS011;24934;52.752;6.964;2023-03-29T03:42:18;26.30;;;20.30;;
39218;SDS011;24934;52.752;6.964;2023-03-29T03:44:44;25.47;;;20.13;;
39218;SDS011;24934;52.752;6.964;2023-03-29T03:47:10;27.60;;;20.57;;
39218;SDS011;24934;52.752;6.964;2023-03-29T03:49:37;24.47;;;20.27;;
39218;SDS011;24934;52.752;6.964;2023-03-29T03:52:03;24.60;;;18.97;;
39218;SDS011;24934;52.752;6.964;2023-03-29T03:54:28;24.23;;;19.63;;
39218;SDS011;24934;52.752;6.964;2023-03-29T03:56:54;26.53;;;20.93;;
39218;SDS011;24934;52.752;6.964;2023-03-29T03:59:22;28.43;;;20.17;;
39218;SDS011;24934;52.752;6.964;2023-03-29T04:01:47;25.43;;;19.80;;
39218;SDS011;24934;52.752;6.964;2023-03-29T04:04:13;26.77;;;20.10;;
39218;SDS011;24934;52.752;6.964;2023-03-29T04:06:38;25.60;;;19.80;;
39218;SDS011;24934;52.752;6.964;2023-03-29T04:09:04;25.10;;;20.03;;
39218;SDS011;24934;52.752;6.964;2023-03-29T04:11:29;26.60;;;20.73;;
39218;SDS011;24934;52.752;6.964;2023-03-29T04:13:56;31.03;;;21.63;;
39218;SDS011;24934;52.752;6.964;2023-03-29T04:16:22;31.13;;;22.47;;
39218;SDS011;24934;52.752;6.964;2023-03-29T04:18:48;34.43;;;24.63;;
39218;SDS011;24934;52.752;6.964;2023-03-29T04:21:13;38.63;;;25.77;;
39218;SDS011;24934;52.752;6.964;2023-03-29T04:23:39;39.90;;;26.43;;
39218;SDS011;24934;52.752;6.964;2023-03-29T04:26:07;38.17;;;24.50;;
39218;SDS011;24934;52.752;6.964;2023-03-29T04:28:33;28.63;;;21.63;;
39218;SDS011;24934;52.752;6.964;2023-03-29T04:30:58;27.13;;;21.03;;
39218;SDS011;24934;52.752;6.964;2023-03-29T04:33:24;32.43;;;21.20;;
39218;SDS011;24934;52.752;6.964;2023-03-29T04:35:50;27.40;;;20.57;;
39218;SDS011;24934;52.752;6.964;2023-03-29T04:38:16;25.13;;;19.60;;
39218;SDS011;24934;52.752;6.964;2023-03-29T04:40:46;25.10;;;19.10;;
39218;SDS011;24934;52.752;6.964;2023-03-29T04:43:13;26.47;;;19.90;;
39218;SDS011;24934;52.752;6.964;2023-03-29T04:45:39;26.50;;;19.83;;
39218;SDS011;24934;52.752;6.964;2023-03-29T04:48:05;24.63;;;19.63;;
39218;SDS011;24934;52.752;6.964;2023-03-29T04:50:31;26.37;;;19.07;;
39218;SDS011;24934;52.752;6.964;2023-03-29T04:52:57;25.23;;;19.10;;
39218;SDS011;24934;52.752;6.964;2023-03-29T04:55:24;25.97;;;18.90;;
39218;SDS011;24934;52.752;6.964;2023-03-29T04:57:50;23.27;;;18.23;;
39218;SDS011;24934;52.752;6.964;2023-03-29T05:00:17;23.93;;;17.73;;
39218;SDS011;24934;52.752;6.964;2023-03-29T05:02:44;24.63;;;17.50;;
39218;SDS011;24934;52.752;6.964;2023-03-29T05:05:11;22.53;;;18.23;;
39218;SDS011;24934;52.752;6.964;2023-03-29T05:07:37;22.73;;;18.07;;
39218;SDS011;24934;52.752;6.964;2023-03-29T05:10:04;23.67;;;17.80;;
39218;SDS011;24934;52.752;6.964;2023-03-29T05:12:31;24.20;;;18.07;;
39218;SDS011;24934;52.752;6.964;2023-03-29T05:14:57;23.50;;;17.10;;
39218;SDS011;24934;52.752;6.964;2023-03-29T05:17:22;23.17;;;17.70;;
39218;SDS011;24934;52.752;6.964;2023-03-29T05:19:51;25.10;;;17.87;;
39218;SDS011;24934;52.752;6.964;2023-03-29T05:22:18;25.17;;;17.77;;
39218;SDS011;24934;52.752;6.964;2023-03-29T05:24:45;23.70;;;17.57;;
39218;SDS011;24934;52.752;6.964;2023-03-29T05:27:11;22.80;;;17.43;;
39218;SDS011;24934;52.752;6.964;2023-03-29T05:29:37;24.93;;;18.70;;
39218;SDS011;24934;52.752;6.964;2023-03-29T05:32:03;25.20;;;17.80;;
39218;SDS011;24934;52.752;6.964;2023-03-29T05:34:28;24.60;;;18.73;;
39218;SDS011;24934;52.752;6.964;2023-03-29T05:36:55;25.47;;;18.77;;
39218;SDS011;24934;52.752;6.964;2023-03-29T05:39:23;26.07;;;18.63;;
39218;SDS011;24934;52.752;6.964;2023-03-29T05:41:48;26.70;;;19.77;;
39218;SDS011;24934;52.752;6.964;2023-03-29T05:44:14;27.67;;;21.07;;
39218;SDS011;24934;52.752;6.964;2023-03-29T05:46:40;28.03;;;21.63;;
39218;SDS011;24934;52.752;6.964;2023-03-29T05:49:06;28.00;;;21.03;;
39218;SDS011;24934;52.752;6.964;2023-03-29T05:51:32;28.27;;;22.03;;
39218;SDS011;24934;52.752;6.964;2023-03-29T05:53:59;31.10;;;22.07;;
39218;SDS011;24934;52.752;6.964;2023-03-29T05:56:25;32.77;;;21.60;;
39218;SDS011;24934;52.752;6.964;2023-03-29T05:58:55;32.80;;;22.47;;
39218;SDS011;24934;52.752;6.964;2023-03-29T06:01:21;31.40;;;22.70;;
39218;SDS011;24934;52.752;6.964;2023-03-29T06:03:48;31.40;;;22.27;;
39218;SDS011;24934;52.752;6.964;2023-03-29T06:06:14;31.50;;;23.60;;
39218;SDS011;24934;52.752;6.964;2023-03-29T06:08:40;32.03;;;22.83;;
39218;SDS011;24934;52.752;6.964;2023-03-29T06:11:06;32.70;;;24.33;;
39218;SDS011;24934;52.752;6.964;2023-03-29T06:13:32;31.87;;;24.13;;
39218;SDS011;24934;52.752;6.964;2023-03-29T06:15:59;32.90;;;24.53;;
39218;SDS011;24934;52.752;6.964;2023-03-29T06:18:25;31.77;;;23.60;;
39218;SDS011;24934;52.752;6.964;2023-03-29T06:20:51;31.57;;;24.33;;
39218;SDS011;24934;52.752;6.964;2023-03-29T06:23:18;29.97;;;23.33;;
39218;SDS011;24934;52.752;6.964;2023-03-29T06:25:44;34.77;;;23.93;;
39218;SDS011;24934;52.752;6.964;2023-03-29T06:28:11;33.23;;;23.47;;
39218;SDS011;24934;52.752;6.964;2023-03-29T06:30:38;33.57;;;24.63;;
39218;SDS011;24934;52.752;6.964;2023-03-29T06:33:04;36.97;;;24.57;;
39218;SDS011;24934;52.752;6.964;2023-03-29T06:35:33;34.70;;;24.03;;
39218;SDS011;24934;52.752;6.964;2023-03-29T06:38:02;29.83;;;22.87;;
39218;SDS011;24934;52.752;6.964;2023-03-29T06:40:28;29.80;;;23.07;;
39218;SDS011;24934;52.752;6.964;2023-03-29T06:42:55;30.23;;;23.87;;
39218;SDS011;24934;52.752;6.964;2023-03-29T06:45:29;31.07;;;22.97;;
39218;SDS011;24934;52.752;6.964;2023-03-29T06:47:57;33.37;;;23.73;;
39218;SDS011;24934;52.752;6.964;2023-03-29T06:50:23;30.57;;;22.50;;
39218;SDS011;24934;52.752;6.964;2023-03-29T06:52:50;30.80;;;22.80;;
39218;SDS011;24934;52.752;6.964;2023-03-29T06:55:16;31.37;;;22.30;;
39218;SDS011;24934;52.752;6.964;2023-03-29T06:57:43;30.40;;;22.80;;
39218;SDS011;24934;52.752;6.964;2023-03-29T07:00:09;27.70;;;22.13;;
39218;SDS011;24934;52.752;6.964;2023-03-29T07:02:42;25.80;;;21.50;;
39218;SDS011;24934;52.752;6.964;2023-03-29T07:05:08;27.97;;;21.67;;
39218;SDS011;24934;52.752;6.964;2023-03-29T07:07:41;30.93;;;21.77;;
39218;SDS011;24934;52.752;6.964;2023-03-29T07:10:19;29.93;;;21.33;;
39218;SDS011;24934;52.752;6.964;2023-03-29T07:12:46;26.10;;;20.93;;
39218;SDS011;24934;52.752;6.964;2023-03-29T07:15:13;24.40;;;20.73;;
39218;SDS011;24934;52.752;6.964;2023-03-29T07:17:39;35.43;;;21.70;;
39218;SDS011;24934;52.752;6.964;2023-03-29T07:20:05;32.37;;;21.27;;
39218;SDS011;24934;52.752;6.964;2023-03-29T07:22:38;28.00;;;21.07;;
39218;SDS011;24934;52.752;6.964;2023-03-29T07:25:05;27.53;;;20.80;;
39218;SDS011;24934;52.752;6.964;2023-03-29T07:27:33;26.73;;;20.23;;
39218;SDS011;24934;52.752;6.964;2023-03-29T07:29:59;26.80;;;20.77;;
39218;SDS011;24934;52.752;6.964;2023-03-29T07:32:25;24.77;;;20.30;;
39218;SDS011;24934;52.752;6.964;2023-03-29T07:34:52;22.30;;;19.03;;
39218;SDS011;24934;52.752;6.964;2023-03-29T07:37:17;26.77;;;19.57;;
39218;SDS011;24934;52.752;6.964;2023-03-29T07:39:43;23.27;;;19.30;;
39218;SDS011;24934;52.752;6.964;2023-03-29T07:42:08;22.83;;;19.30;;
39218;SDS011;24934;52.752;6.964;2023-03-29T07:44:34;23.77;;;19.40;;
39218;SDS011;24934;52.752;6.964;2023-03-29T07:47:01;23.90;;;18.07;;
39218;SDS011;24934;52.752;6.964;2023-03-29T07:49:28;22.57;;;18.07;;
39218;SDS011;24934;52.752;6.964;2023-03-29T07:51:53;24.27;;;18.53;;
39218;SDS011;24934;52.752;6.964;2023-03-29T07:54:19;23.20;;;17.70;;
39218;SDS011;24934;52.752;6.964;2023-03-29T07:56:45;19.70;;;16.60;;
39218;SDS011;24934;52.752;6.964;2023-03-29T07:59:11;20.87;;;16.63;;
39218;SDS011;24934;52.752;6.964;2023-03-29T08:01:38;21.70;;;16.90;;
39218;SDS011;24934;52.752;6.964;2023-03-29T08:04:05;19.97;;;16.00;;
39218;SDS011;24934;52.752;6.964;2023-03-29T08:06:31;21.10;;;15.93;;
39218;SDS011;24934;52.752;6.964;2023-03-29T08:08:57;22.67;;;16.27;;
39218;SDS011;24934;52.752;6.964;2023-03-29T08:11:24;21.47;;;16.00;;
39218;SDS011;24934;52.752;6.964;2023-03-29T08:13:49;22.33;;;15.57;;
39218;SDS011;24934;52.752;6.964;2023-03-29T08:16:16;18.97;;;15.87;;
39218;SDS011;24934;52.752;6.964;2023-03-29T08:18:41;18.10;;;15.73;;
39218;SDS011;24934;52.752;6.964;2023-03-29T08:21:07;20.27;;;14.93;;
39218;SDS011;24934;52.752;6.964;2023-03-29T08:23:33;18.10;;;14.77;;
39218;SDS011;24934;52.752;6.964;2023-03-29T08:25:59;19.23;;;15.60;;
39218;SDS011;24934;52.752;6.964;2023-03-29T08:28:25;18.20;;;14.07;;
39218;SDS011;24934;52.752;6.964;2023-03-29T08:30:51;17.63;;;15.67;;
39218;SDS011;24934;52.752;6.964;2023-03-29T08:33:18;19.23;;;15.33;;
39218;SDS011;24934;52.752;6.964;2023-03-29T08:35:43;18.23;;;14.93;;
39218;SDS011;24934;52.752;6.964;2023-03-29T08:38:09;18.00;;;15.57;;
39218;SDS011;24934;52.752;6.964;2023-03-29T08:40:35;20.57;;;14.53;;
39218;SDS011;24934;52.752;6.964;2023-03-29T08:43:05;18.57;;;14.40;;
39218;SDS011;24934;52.752;6.964;2023-03-29T08:48:30;16.73;;;13.57;;
39218;SDS011;24934;52.752;6.964;2023-03-29T08:51:08;22.50;;;13.60;;
39218;SDS011;24934;52.752;6.964;2023-03-29T08:53:52;16.10;;;13.60;;
39218;SDS011;24934;52.752;6.964;2023-03-29T08:56:25;16.93;;;13.03;;
39218;SDS011;24934;52.752;6.964;2023-03-29T08:58:53;15.03;;;13.00;;
39218;SDS011;24934;52.752;6.964;2023-03-29T09:01:21;14.27;;;12.87;;
39218;SDS011;24934;52.752;6.964;2023-03-29T09:04:05;17.30;;;13.63;;
39218;SDS011;24934;52.752;6.964;2023-03-29T09:06:38;18.07;;;12.80;;
39218;SDS011;24934;52.752;6.964;2023-03-29T09:09:04;15.07;;;13.40;;
39218;SDS011;24934;52.752;6.964;2023-03-29T09:11:51;15.60;;;12.80;;
39218;SDS011;24934;52.752;6.964;2023-03-29T09:14:47;15.60;;;12.67;;
39218;SDS011;24934;52.752;6.964;2023-03-29T09:20:19;15.27;;;12.90;;
39218;SDS011;24934;52.752;6.964;2023-03-29T09:33:39;16.07;;;13.20;;
39218;SDS011;24934;52.752;6.964;2023-03-29T09:36:10;14.20;;;12.80;;
39218;SDS011;24934;52.752;6.964;2023-03-29T09:38:42;14.43;;;12.90;;
39218;SDS011;24934;52.752;6.964;2023-03-29T09:43:58;15.20;;;13.40;;
39218;SDS011;24934;52.752;6.964;2023-03-29T09:46:40;15.23;;;13.47;;
39218;SDS011;24934;52.752;6.964;2023-03-29T09:49:11;15.03;;;12.87;;
39218;SDS011;24934;52.752;6.964;2023-03-29T09:51:41;15.87;;;12.97;;
39218;SDS011;24934;52.752;6.964;2023-03-29T09:54:10;15.77;;;13.60;;
39218;SDS011;24934;52.752;6.964;2023-03-29T09:56:37;19.57;;;14.93;;
39218;SDS011;24934;52.752;6.964;2023-03-29T09:59:03;15.27;;;13.70;;
39218;SDS011;24934;52.752;6.964;2023-03-29T10:01:36;15.43;;;13.47;;
39218;SDS011;24934;52.752;6.964;2023-03-29T10:04:08;17.37;;;13.87;;
39218;SDS011;24934;52.752;6.964;2023-03-29T10:06:35;21.03;;;13.13;;
39218;SDS011;24934;52.752;6.964;2023-03-29T10:09:10;17.53;;;13.83;;
39218;SDS011;24934;52.752;6.964;2023-03-29T10:11:44;16.57;;;13.83;;
39218;SDS011;24934;52.752;6.964;2023-03-29T10:14:16;17.33;;;14.27;;
39218;SDS011;24934;52.752;6.964;2023-03-29T10:16:42;17.00;;;14.13;;
39218;SDS011;24934;52.752;6.964;2023-03-29T10:19:17;19.30;;;14.13;;
39218;SDS011;24934;52.752;6.964;2023-03-29T10:21:46;18.90;;;14.67;;
39218;SDS011;24934;52.752;6.964;2023-03-29T10:24:26;18.63;;;15.10;;
39218;SDS011;24934;52.752;6.964;2023-03-29T10:26:53;17.33;;;15.27;;
39218;SDS011;24934;52.752;6.964;2023-03-29T10:29:24;18.23;;;15.13;;
39218;SDS011;24934;52.752;6.964;2023-03-29T10:31:51;19.47;;;16.33;;
39218;SDS011;24934;52.752;6.964;2023-03-29T10:34:17;23.40;;;15.40;;
39218;SDS011;24934;52.752;6.964;2023-03-29T10:36:49;20.10;;;15.00;;
39218;SDS011;24934;52.752;6.964;2023-03-29T10:39:28;17.60;;;15.70;;
39218;SDS011;24934;52.752;6.964;2023-03-29T10:42:01;16.95;;;15.05;;
39218;SDS011;24934;52.752;6.964;2023-03-29T10:44:29;17.00;;;14.87;;
39218;SDS011;24934;52.752;6.964;2023-03-29T10:47:05;17.20;;;15.23;;
39218;SDS011;24934;52.752;6.964;2023-03-29T10:49:38;17.43;;;15.10;;
39218;SDS011;24934;52.752;6.964;2023-03-29T10:52:11;17.77;;;15.07;;
39218;SDS011;24934;52.752;6.964;2023-03-29T10:54:38;18.07;;;14.83;;
39218;SDS011;24934;52.752;6.964;2023-03-29T10:57:04;19.00;;;15.60;;
39218;SDS011;24934;52.752;6.964;2023-03-29T11:05:33;16.63;;;14.90;;
39218;SDS011;24934;52.752;6.964;2023-03-29T11:11:01;18.57;;;16.67;;
39218;SDS011;24934;52.752;6.964;2023-03-29T11:13:49;15.47;;;13.93;;
39218;SDS011;24934;52.752;6.964;2023-03-29T11:16:38;15.25;;;13.73;;
39218;SDS011;24934;52.752;6.964;2023-03-29T11:19:37;15.98;;;14.45;;
39218;SDS011;24934;52.752;6.964;2023-03-29T11:22:32;15.55;;;14.05;;
39218;SDS011;24934;52.752;6.964;2023-03-29T11:25:12;16.65;;;14.77;;
39218;SDS011;24934;52.752;6.964;2023-03-29T11:27:49;17.40;;;14.57;;
39218;SDS011;24934;52.752;6.964;2023-03-29T11:30:36;16.50;;;14.70;;
39218;SDS011;24934;52.752;6.964;2023-03-29T11:33:17;19.42;;;15.02;;
39218;SDS011;24934;52.752;6.964;2023-03-29T11:41:18;15.85;;;14.35;;
39218;SDS011;24934;52.752;6.964;2023-03-29T11:43:50;17.30;;;14.52;;
39218;SDS011;24934;52.752;6.964;2023-03-29T11:49:25;17.80;;;14.43;;
39218;SDS011;24934;52.752;6.964;2023-03-29T11:52:01;15.07;;;13.68;;
39218;SDS011;24934;52.752;6.964;2023-03-29T11:54:38;17.83;;;14.77;;
39218;SDS011;24934;52.752;6.964;2023-03-29T11:57:29;15.70;;;14.18;;
39218;SDS011;24934;52.752;6.964;2023-03-29T12:00:02;17.63;;;15.90;;
39218;SDS011;24934;52.752;6.964;2023-03-29T12:05:04;16.02;;;14.32;;
39218;SDS011;24934;52.752;6.964;2023-03-29T12:08:15;15.52;;;14.07;;
39218;SDS011;24934;52.752;6.964;2023-03-29T12:13:28;15.75;;;14.02;;
39218;SDS011;24934;52.752;6.964;2023-03-29T12:18:58;15.75;;;14.23;;
39218;SDS011;24934;52.752;6.964;2023-03-29T12:21:30;16.05;;;14.45;;
39218;SDS011;24934;52.752;6.964;2023-03-29T12:23:59;15.95;;;14.50;;
39218;SDS011;24934;52.752;6.964;2023-03-29T12:40:08;16.50;;;14.80;;
39218;SDS011;24934;52.752;6.964;2023-03-29T12:42:43;16.05;;;14.30;;
39218;SDS011;24934;52.752;6.964;2023-03-29T12:45:19;15.05;;;13.55;;
39218;SDS011;24934;52.752;6.964;2023-03-29T12:47:54;16.00;;;13.60;;
39218;SDS011;24934;52.752;6.964;2023-03-29T12:50:24;14.82;;;13.43;;
39218;SDS011;24934;52.752;6.964;2023-03-29T12:55:49;15.48;;;13.98;;
39218;SDS011;24934;52.752;6.964;2023-03-29T12:58:22;16.05;;;13.40;;
39218;SDS011;24934;52.752;6.964;2023-03-29T13:01:03;19.83;;;14.00;;
39218;SDS011;24934;52.752;6.964;2023-03-29T13:03:45;18.10;;;14.52;;
39218;SDS011;24934;52.752;6.964;2023-03-29T13:06:12;18.23;;;13.75;;
39218;SDS011;24934;52.752;6.964;2023-03-29T13:09:03;16.60;;;14.93;;
39218;SDS011;24934;52.752;6.964;2023-03-29T13:11:53;17.00;;;15.27;;
39218;SDS011;24934;52.752;6.964;2023-03-29T13:14:22;18.27;;;15.00;;
39218;SDS011;24934;52.752;6.964;2023-03-29T13:16:59;16.45;;;14.82;;
39218;SDS011;24934;52.752;6.964;2023-03-29T13:19:36;14.90;;;13.60;;
39218;SDS011;24934;52.752;6.964;2023-03-29T13:30:13;14.02;;;12.45;;
39218;SDS011;24934;52.752;6.964;2023-03-29T13:36:13;16.20;;;14.30;;
39218;SDS011;24934;52.752;6.964;2023-03-29T13:38:20;16.17;;;13.77;;
39218;SDS011;24934;52.752;6.964;2023-03-29T13:45:43;16.05;;;14.30;;
39218;SDS011;24934;52.752;6.964;2023-03-29T13:51:02;16.85;;;15.13;;
39218;SDS011;24934;52.752;6.964;2023-03-29T13:53:50;17.17;;;15.45;;
39218;SDS011;24934;52.752;6.964;2023-03-29T13:56:23;18.27;;;15.48;;
39218;SDS011;24934;52.752;6.964;2023-03-29T13:58:52;18.15;;;15.75;;
39218;SDS011;24934;52.752;6.964;2023-03-29T14:01:40;18.67;;;15.00;;
39218;SDS011;24934;52.752;6.964;2023-03-29T14:04:12;16.88;;;15.10;;
39218;SDS011;24934;52.752;6.964;2023-03-29T14:06:47;17.13;;;15.32;;
39218;SDS011;24934;52.752;6.964;2023-03-29T14:09:16;16.60;;;14.85;;
39218;SDS011;24934;52.752;6.964;2023-03-29T14:11:44;18.45;;;15.75;;
39218;SDS011;24934;52.752;6.964;2023-03-29T14:14:11;18.75;;;15.90;;
39218;SDS011;24934;52.752;6.964;2023-03-29T14:16:37;18.95;;;16.55;;
39218;SDS011;24934;52.752;6.964;2023-03-29T14:19:12;16.80;;;15.00;;
39218;SDS011;24934;52.752;6.964;2023-03-29T14:21:41;17.70;;;14.98;;
39218;SDS011;24934;52.752;6.964;2023-03-29T14:24:21;16.58;;;14.98;;
39218;SDS011;24934;52.752;6.964;2023-03-29T14:26:51;20.35;;;15.05;;
39218;SDS011;24934;52.752;6.964;2023-03-29T14:29:17;16.88;;;15.05;;
39218;SDS011;24934;52.752;6.964;2023-03-29T14:31:43;16.33;;;14.65;;
39218;SDS011;24934;52.752;6.964;2023-03-29T14:34:12;17.80;;;14.88;;
39218;SDS011;24934;52.752;6.964;2023-03-29T14:36:46;17.60;;;15.73;;
39218;SDS011;24934;52.752;6.964;2023-03-29T14:39:16;16.77;;;15.07;;
39218;SDS011;24934;52.752;6.964;2023-03-29T14:41:55;21.08;;;15.77;;
39218;SDS011;24934;52.752;6.964;2023-03-29T14:44:26;20.38;;;16.45;;
39218;SDS011;24934;52.752;6.964;2023-03-29T14:46:54;18.35;;;15.50;;
39218;SDS011;24934;52.752;6.964;2023-03-29T14:49:21;19.08;;;15.40;;
39218;SDS011;24934;52.752;6.964;2023-03-29T14:51:47;17.00;;;15.30;;
39218;SDS011;24934;52.752;6.964;2023-03-29T14:54:28;16.55;;;14.85;;
39218;SDS011;24934;52.752;6.964;2023-03-29T14:56:56;15.93;;;14.32;;
39218;SDS011;24934;52.752;6.964;2023-03-29T14:59:24;18.55;;;14.60;;
39218;SDS011;24934;52.752;6.964;2023-03-29T15:02:02;15.50;;;14.00;;
39218;SDS011;24934;52.752;6.964;2023-03-29T15:04:32;17.08;;;14.38;;
39218;SDS011;24934;52.752;6.964;2023-03-29T15:06:59;15.77;;;14.27;;
39218;SDS011;24934;52.752;6.964;2023-03-29T15:09:26;16.13;;;14.52;;
39218;SDS011;24934;52.752;6.964;2023-03-29T15:11:56;15.68;;;14.13;;
39218;SDS011;24934;52.752;6.964;2023-03-29T15:14:23;16.33;;;13.57;;
39218;SDS011;24934;52.752;6.964;2023-03-29T15:16:52;14.80;;;13.35;;
39218;SDS011;24934;52.752;6.964;2023-03-29T15:19:24;14.63;;;13.13;;
39218;SDS011;24934;52.752;6.964;2023-03-29T15:21:51;14.35;;;12.95;;
39218;SDS011;24934;52.752;6.964;2023-03-29T15:24:27;15.05;;;13.55;;
39218;SDS011;24934;52.752;6.964;2023-03-29T15:29:35;14.18;;;12.77;;
39218;SDS011;24934;52.752;6.964;2023-03-29T15:32:02;16.20;;;13.35;;
39218;SDS011;24934;52.752;6.964;2023-03-29T15:34:28;17.38;;;14.10;;
39218;SDS011;24934;52.752;6.964;2023-03-29T15:36:55;15.82;;;13.95;;
39218;SDS011;24934;52.752;6.964;2023-03-29T15:39:22;15.55;;;13.95;;
39218;SDS011;24934;52.752;6.964;2023-03-29T15:41:48;14.35;;;13.07;;
39218;SDS011;24934;52.752;6.964;2023-03-29T15:44:16;16.95;;;14.13;;
39218;SDS011;24934;52.752;6.964;2023-03-29T15:46:46;17.90;;;14.48;;
39218;SDS011;24934;52.752;6.964;2023-03-29T15:49:12;16.33;;;14.63;;
39218;SDS011;24934;52.752;6.964;2023-03-29T15:51:38;16.73;;;14.95;;
39218;SDS011;24934;52.752;6.964;2023-03-29T15:54:04;17.27;;;14.43;;
39218;SDS011;24934;52.752;6.964;2023-03-29T15:56:31;16.52;;;13.32;;
39218;SDS011;24934;52.752;6.964;2023-03-29T15:59:04;15.10;;;13.50;;
39218;SDS011;24934;52.752;6.964;2023-03-29T16:01:32;17.60;;;12.93;;
39218;SDS011;24934;52.752;6.964;2023-03-29T16:06:32;14.93;;;13.38;;
39218;SDS011;24934;52.752;6.964;2023-03-29T16:08:58;17.00;;;13.48;;
39218;SDS011;24934;52.752;6.964;2023-03-29T16:11:24;15.05;;;13.73;;
39218;SDS011;24934;52.752;6.964;2023-03-29T16:13:51;14.93;;;13.32;;
39218;SDS011;24934;52.752;6.964;2023-03-29T16:16:16;15.10;;;13.23;;